Time;durP1;ratioP1;P1;durP2;ratioP2;P2;SDS_P1;SDS_P2;PMS_P1;PMS_P2;Temp;Humidity;BMP_temperature;BMP_pressure;BME280_temperature;BME280_humidity;BME280_pressure;Samples;Min_cycle;Max_cycle;Signal;HPM_P1;HPM_P2
2022/03/26 00:04:19;;;;;;;0.00;0.00;;;;;;;4.62;100.00;103132.59;10367370;28;20276;-68
2022/03/26 00:09:19;;;;;;;0.00;0.00;;;;;;;4.62;100.00;103119.41;10367103;28;20297;-69
2022/03/26 00:14:20;;;;;;;0.00;0.00;;;;;;;4.61;100.00;103118.56;10367045;28;20284;-69
2022/03/26 00:19:20;;;;;;;0.00;0.00;;;;;;;4.68;100.00;103127.06;10366886;28;20021;-68
2022/03/26 00:24:21;;;;;;;0.00;0.00;;;;;;;4.67;100.00;103109.53;10366769;28;20025;-69
2022/03/26 00:29:21;;;;;;;0.00;0.00;;;;;;;4.71;100.00;103097.88;10366750;28;20036;-69
2022/03/26 00:34:21;;;;;;;0.00;0.00;;;;;;;4.82;100.00;103098.28;10366629;28;20025;-69
2022/03/26 00:39:22;;;;;;;0.00;0.00;;;;;;;4.92;100.00;103099.63;10366307;28;20281;-69
2022/03/26 00:44:23;;;;;;;0.00;0.00;;;;;;;4.92;100.00;103096.97;10366260;28;20045;-69
2022/03/26 00:49:24;;;;;;;0.00;0.00;;;;;;;4.85;100.00;103092.88;10366418;28;20018;-70
2022/03/26 00:54:24;;;;;;;0.00;0.00;;;;;;;4.81;100.00;103099.22;10364701;28;20494;-69
2022/03/26 00:59:26;;;;;;;0.00;0.00;;;;;;;4.78;100.00;103098.50;10366394;28;20025;-69
2022/03/26 01:04:26;;;;;;;0.00;0.00;;;;;;;4.78;100.00;103098.50;10373172;28;20034;-70
2022/03/26 01:09:26;;;;;;;0.00;0.00;;;;;;;4.72;100.00;103082.00;10373436;28;20451;-69
2022/03/26 01:14:28;;;;;;;0.00;0.00;;;;;;;4.77;100.00;103084.44;10373096;28;20401;-69
2022/03/26 01:19:28;;;;;;;0.00;0.00;;;;;;;4.75;100.00;103073.09;10373088;28;20022;-69
2022/03/26 01:24:28;;;;;;;0.00;0.00;;;;;;;4.78;100.00;103072.09;10373211;28;20504;-69
2022/03/26 01:29:29;;;;;;;0.00;0.00;;;;;;;4.81;100.00;103066.69;10372351;28;20112;-69
2022/03/26 01:34:29;;;;;;;0.00;0.00;;;;;;;4.82;100.00;103065.75;10370811;28;20045;-68
2022/03/26 01:39:30;;;;;;;0.00;0.00;;;;;;;4.80;100.00;103059.66;10372143;28;20160;-69
2022/03/26 01:44:31;;;;;;;0.00;0.00;;;;;;;4.78;100.00;103061.53;10373211;28;20057;-68
2022/03/26 01:49:32;;;;;;;0.00;0.00;;;;;;;4.76;100.00;103056.31;10372618;28;20026;-69
2022/03/26 01:54:32;;;;;;;0.00;0.00;;;;;;;4.78;100.00;103054.47;10372168;28;20033;-68
2022/03/26 01:59:33;;;;;;;0.00;0.00;;;;;;;4.73;100.00;103054.66;10371584;28;20053;-69
2022/03/26 02:04:34;;;;;;;0.00;0.00;;;;;;;4.69;100.00;103058.38;10371199;28;20033;-70
2022/03/26 02:09:35;;;;;;;0.00;0.00;;;;;;;4.69;100.00;103049.59;10370641;28;20029;-68
2022/03/26 02:14:36;;;;;;;0.00;0.00;;;;;;;4.73;100.00;103045.88;10369630;28;20347;-68
2022/03/26 02:19:36;;;;;;;0.00;0.00;;;;;;;4.78;100.00;103041.28;10371234;28;20033;-69
2022/03/26 02:24:37;;;;;;;0.00;0.00;;;;;;;4.75;100.00;103044.91;10370165;28;20460;-68
2022/03/26 02:29:37;;;;;;;0.00;0.00;;;;;;;4.72;100.00;103050.31;10370135;28;20037;-69
2022/03/26 02:34:38;;;;;;;0.10;0.10;;;;;;;4.67;100.00;103054.94;10370408;28;20030;-68
2022/03/26 02:39:38;;;;;;;0.00;0.00;;;;;;;4.61;100.00;103049.91;10369574;28;20354;-68
2022/03/26 02:44:39;;;;;;;0.00;0.00;;;;;;;4.59;100.00;103045.63;10369510;28;20080;-67
2022/03/26 02:49:40;;;;;;;0.00;0.00;;;;;;;4.54;100.00;103046.69;10369373;28;20018;-68
2022/03/26 02:54:41;;;;;;;0.00;0.00;;;;;;;4.50;100.00;103047.72;10368745;28;20052;-68
2022/03/26 02:59:41;;;;;;;0.00;0.00;;;;;;;4.46;100.00;103047.94;10368676;28;20065;-68
2022/03/26 03:04:42;;;;;;;0.00;0.00;;;;;;;4.39;100.00;103051.75;10368395;28;20116;-70
2022/03/26 03:09:43;;;;;;;0.00;0.00;;;;;;;4.29;100.00;103038.94;10368675;28;20261;-69
2022/03/26 03:14:43;;;;;;;0.00;0.00;;;;;;;4.25;100.00;103039.16;10368366;28;20038;-70
2022/03/26 03:19:44;;;;;;;0.00;0.00;;;;;;;4.18;100.00;103035.03;10368087;28;20287;-69
2022/03/26 03:24:44;;;;;;;0.00;0.00;;;;;;;4.16;100.00;103052.69;10367678;28;20030;-70
2022/03/26 03:29:44;;;;;;;0.00;0.00;;;;;;;4.16;100.00;103048.31;10367763;28;20088;-70
2022/03/26 03:34:44;;;;;;;0.00;0.00;;;;;;;4.08;100.00;103055.66;10366186;28;20532;-69
2022/03/26 03:39:45;;;;;;;0.00;0.00;;;;;;;3.99;100.00;103050.78;10367266;28;20112;-70
2022/03/26 03:44:45;;;;;;;0.00;0.00;;;;;;;3.91;100.00;103037.88;10367549;28;20457;-69
2022/03/26 03:49:46;;;;;;;0.00;0.00;;;;;;;3.88;100.00;103053.84;10367387;28;20728;-70
2022/03/26 03:54:46;;;;;;;0.00;0.00;;;;;;;3.84;100.00;103049.63;10365545;28;20057;-69
2022/03/26 03:59:47;;;;;;;0.00;0.00;;;;;;;3.77;100.00;103048.97;10367719;28;20099;-70
2022/03/26 04:04:47;;;;;;;0.08;0.08;;;;;;;3.71;100.00;103032.56;10366773;28;20747;-68
2022/03/26 04:09:48;;;;;;;0.00;0.00;;;;;;;3.71;100.00;103037.81;10366813;28;20025;-68
2022/03/26 04:14:48;;;;;;;0.00;0.00;;;;;;;3.68;100.00;103032.69;10366303;28;20036;-69
2022/03/26 04:19:48;;;;;;;0.00;0.00;;;;;;;3.68;100.00;103041.44;10366797;28;20033;-68
2022/03/26 04:24:49;;;;;;;0.00;0.00;;;;;;;3.66;100.00;103023.97;10367032;28;20266;-68
2022/03/26 04:29:49;;;;;;;0.00;0.00;;;;;;;3.73;100.00;103028.09;10366973;28;20038;-69
2022/03/26 04:34:49;;;;;;;0.00;0.00;;;;;;;3.78;100.00;103032.25;10366806;28;20265;-69
2022/03/26 04:39:50;;;;;;;0.00;0.00;;;;;;;3.80;100.00;103021.63;10373921;28;20772;-68
2022/03/26 04:44:50;;;;;;;0.00;0.00;;;;;;;3.82;100.00;103025.94;10374048;28;20489;-68
2022/03/26 04:49:51;;;;;;;0.00;0.00;;;;;;;3.91;100.00;103023.84;10374004;28;20018;-69
2022/03/26 04:54:51;;;;;;;0.00;0.00;;;;;;;4.00;100.00;103032.22;10373352;28;20026;-69
2022/03/26 04:59:52;;;;;;;0.00;0.00;;;;;;;4.12;100.00;103022.97;10373341;28;20021;-69
2022/03/26 05:04:53;;;;;;;0.00;0.00;;;;;;;4.17;100.00;103022.78;10373605;28;20356;-69
2022/03/26 05:09:53;;;;;;;0.00;0.00;;;;;;;4.20;100.00;103023.50;10373053;28;20029;-69
2022/03/26 05:14:53;;;;;;;0.00;0.00;;;;;;;4.29;100.00;103027.53;10373540;28;20033;-69
2022/03/26 05:19:53;;;;;;;0.00;0.00;;;;;;;4.33;100.00;103042.31;10372924;28;20033;-69
2022/03/26 05:24:54;;;;;;;0.00;0.00;;;;;;;4.37;100.00;103053.63;10372933;28;20045;-69
2022/03/26 05:29:55;;;;;;;0.00;0.00;;;;;;;4.45;100.00;103060.28;10373076;28;20079;-69
2022/03/26 05:34:55;;;;;;;0.00;0.00;;;;;;;4.78;100.00;103065.03;10371223;28;20045;-69
2022/03/26 05:39:55;;;;;;;0.00;0.00;;;;;;;5.32;100.00;103059.97;10372458;28;20434;-68
2022/03/26 05:44:56;;;;;;;0.00;0.00;;;;;;;5.96;100.00;103072.84;10372204;28;20269;-69
2022/03/26 05:49:57;;;;;;;0.00;0.00;;;;;;;6.61;100.00;103073.16;10370641;28;20021;-69
2022/03/26 05:54:57;;;;;;;0.00;0.00;;;;;;;7.28;100.00;103067.91;10370156;28;20477;-69
2022/03/26 05:59:57;;;;;;;0.00;0.00;;;;;;;7.87;100.00;103066.41;10371202;28;20347;-66
2022/03/26 06:04:58;;;;;;;0.00;0.00;;;;;;;8.35;100.00;103069.84;10371006;28;20057;-68
2022/03/26 06:09:58;;;;;;;0.00;0.00;;;;;;;9.04;100.00;103073.69;10371183;28;20014;-68
2022/03/26 06:14:58;;;;;;;0.10;0.10;;;;;;;9.60;100.00;103084.38;10371168;28;20104;-68
2022/03/26 06:19:59;;;;;;;0.03;0.03;;;;;;;10.06;100.00;103092.06;10370574;28;20117;-68
2022/03/26 06:24:59;;;;;;;0.10;0.10;;;;;;;10.55;99.82;103095.00;10370485;28;20091;-68
2022/03/26 06:29:59;;;;;;;0.00;0.00;;;;;;;11.17;97.59;103086.34;10370484;28;20018;-68
2022/03/26 06:35:00;;;;;;;0.10;0.10;;;;;;;11.90;93.18;103090.91;10369897;28;20025;-68
2022/03/26 06:40:00;;;;;;;0.10;0.10;;;;;;;12.71;87.87;103081.25;10370199;28;20030;-68
2022/03/26 06:45:00;;;;;;;0.10;0.10;;;;;;;13.61;84.17;103075.09;10369748;28;20060;-68
2022/03/26 06:50:01;;;;;;;0.10;0.10;;;;;;;14.23;79.80;103083.34;10369730;28;20017;-67
2022/03/26 06:55:04;;;;;;;0.10;0.10;;;;;;;14.60;78.62;103077.59;10369520;28;20036;-68
2022/03/26 07:00:05;;;;;;;0.10;0.10;;;;;;;14.72;76.95;103067.66;10368903;28;20499;-69
2022/03/26 07:05:06;;;;;;;0.10;0.10;;;;;;;15.17;75.95;103061.94;10369325;28;20477;-69
2022/03/26 07:10:07;;;;;;;0.10;0.10;;;;;;;14.38;77.34;103070.47;10369933;28;20056;-69
2022/03/26 07:15:08;;;;;;;0.00;0.00;;;;;;;14.49;80.35;103072.25;10368845;28;20396;-68
2022/03/26 07:20:09;;;;;;;0.10;0.10;;;;;;;15.42;74.80;103075.84;10369314;28;20022;-68
2022/03/26 07:25:10;;;;;;;0.10;0.10;;;;;;;15.65;72.15;103071.13;10368324;28;20091;-68
2022/03/26 07:30:11;;;;;;;0.00;0.00;;;;;;;14.92;75.56;103080.19;10367833;28;20044;-67
2022/03/26 07:35:11;;;;;;;0.10;0.10;;;;;;;13.81;79.08;103074.31;10367541;28;20116;-68
2022/03/26 07:40:13;;;;;;;0.00;0.00;;;;;;;14.38;79.58;103080.34;10367371;28;20033;-69
2022/03/26 07:45:13;;;;;;;0.10;0.10;;;;;;;14.57;78.39;103085.03;10367023;28;20289;-68
2022/03/26 07:50:14;;;;;;;0.10;0.10;;;;;;;14.14;80.04;103084.09;10367577;28;20080;-68
2022/03/26 07:55:14;;;;;;;0.10;0.10;;;;;;;13.43;83.42;103082.78;10367163;28;20034;-68
2022/03/26 08:00:15;;;;;;;0.10;0.10;;;;;;;13.00;85.49;103088.81;10366889;28;20331;-68
2022/03/26 08:05:15;;;;;;;0.10;0.10;;;;;;;12.74;88.58;103086.38;10366766;28;20053;-68
2022/03/26 08:10:16;;;;;;;0.10;0.10;;;;;;;12.88;89.33;103093.31;10367299;28;20041;-68
2022/03/26 08:15:16;;;;;;;0.10;0.10;;;;;;;13.31;88.29;103098.84;10375178;28;20054;-68
2022/03/26 08:20:16;;;;;;;0.10;0.10;;;;;;;14.12;86.53;103099.47;10371255;28;20049;-68
2022/03/26 08:26:19;;;;;;;0.10;0.10;;;;;;;14.11;84.29;103095.09;10333711;28;20557;-70
2022/03/26 08:30:37;;;;;;;0.10;0.10;;;;;;;14.38;84.15;103097.28;10333459;28;20462;-70
2022/03/26 08:35:40;;;;;;;0.10;0.10;;;;;;;14.85;79.06;103094.25;10332969;28;20033;-70
2022/03/26 08:40:41;;;;;;;0.10;0.10;;;;;;;15.23;78.28;103087.38;10332882;28;20121;-70
2022/03/26 08:45:41;;;;;;;0.10;0.10;;;;;;;14.84;77.86;103092.56;10333023;28;20180;-70
2022/03/26 08:50:42;;;;;;;0.10;0.10;;;;;;;14.57;80.40;103090.38;10330370;28;20014;-70
2022/03/26 08:55:43;;;;;;;0.10;0.10;;;;;;;14.03;82.52;103082.31;10332736;28;20438;-70
2022/03/26 09:00:47;;;;;;;0.10;0.10;;;;;;;13.99;82.12;103086.22;10331869;28;20164;-70
2022/03/26 09:05:49;;;;;;;0.05;0.05;;;;;;;13.73;84.61;103085.69;10333011;28;20369;-70
2022/03/26 09:10:49;;;;;;;0.10;0.10;;;;;;;13.51;86.35;103086.56;10331738;28;20034;-70
2022/03/26 09:15:50;;;;;;;0.10;0.10;;;;;;;13.21;87.96;103092.50;10331676;28;20037;-70
2022/03/26 09:20:50;;;;;;;0.00;0.00;;;;;;;13.12;90.14;103094.09;10330134;28;20274;-70
2022/03/26 09:25:50;;;;;;;0.10;0.10;;;;;;;12.97;88.79;103092.59;10329159;28;20052;-70
2022/03/26 09:30:51;;;;;;;0.10;0.10;;;;;;;13.04;89.44;103092.97;10330943;28;20254;-70
2022/03/26 09:35:51;;;;;;;0.10;0.10;;;;;;;13.10;89.53;103092.50;10330696;28;20273;-70
2022/03/26 09:40:51;;;;;;;0.10;0.10;;;;;;;13.08;88.96;103097.13;10329987;28;20771;-70
2022/03/26 09:45:52;;;;;;;0.10;0.10;;;;;;;13.04;89.72;103096.50;10328793;28;20447;-70
2022/03/26 09:50:53;;;;;;;0.10;0.10;;;;;;;13.00;90.70;103092.38;10324212;28;20072;-69
2022/03/26 09:55:54;;;;;;;0.10;0.10;;;;;;;13.09;92.02;103085.47;10329431;28;20445;-70
2022/03/26 10:00:56;;;;;;;0.00;0.00;;;;;;;13.25;93.18;103085.97;10329079;28;20418;-69
2022/03/26 10:06:05;;;;;;;0.10;0.10;;;;;;;13.20;94.61;103092.63;10329421;28;20030;-70
2022/03/26 10:11:09;;;;;;;0.00;0.00;;;;;;;12.99;95.92;103097.84;10329138;28;20435;-70
2022/03/26 10:16:10;;;;;;;;;;;;;;;12.89;98.66;103095.88;10329227;28;20030;-70
2022/03/26 10:21:18;;;;;;;0.10;0.10;;;;;;;12.61;99.11;103109.66;10328522;28;19917;-70
2022/03/26 10:26:23;;;;;;;0.10;0.10;;;;;;;12.38;100.00;103122.09;10329181;28;20031;-69
2022/03/26 10:36:53;;;;;;;;;;;;;;;11.92;100.00;103126.34;10329268;28;20038;-70
2022/03/26 10:41:54;;;;;;;0.10;0.10;;;;;;;11.83;100.00;103123.47;10328520;28;20416;-70
2022/03/26 10:47:00;;;;;;;0.10;0.10;;;;;;;11.76;100.00;103115.91;10328457;28;20434;-70
2022/03/26 10:52:11;;;;;;;0.10;0.10;;;;;;;11.74;100.00;103125.81;10326496;28;20022;-70
2022/03/26 10:57:12;;;;;;;0.10;0.10;;;;;;;11.75;100.00;103119.53;10328073;28;20357;-70
2022/03/26 11:02:12;;;;;;;0.10;0.10;;;;;;;11.95;100.00;103110.09;10322493;28;20030;-70
2022/03/26 11:07:13;;;;;;;0.10;0.10;;;;;;;12.10;100.00;103117.94;10329364;28;20376;-70
2022/03/26 11:12:17;;;;;;;0.10;0.10;;;;;;;12.30;100.00;103119.97;10367525;28;20050;-70
2022/03/26 11:17:29;;;;;;;0.10;0.10;;;;;;;12.34;100.00;103129.50;10335215;28;20033;-70
2022/03/26 11:23:26;;;;;;;0.10;0.10;;;;;;;12.58;100.00;103132.13;10319133;28;20041;-70
2022/03/26 11:28:38;;;;;;;0.10;0.10;;;;;;;12.61;100.00;103129.22;10254532;28;20067;-70
2022/03/26 11:33:39;;;;;;;0.10;0.10;;;;;;;12.74;100.00;103131.84;10327455;28;20046;-70
2022/03/26 11:38:40;;;;;;;0.10;0.10;;;;;;;12.74;100.00;103126.50;10326755;28;20474;-70
2022/03/26 11:43:43;;;;;;;0.10;0.10;;;;;;;12.64;99.84;103120.97;10326975;28;20045;-70
2022/03/26 11:54:12;;;;;;;0.10;0.10;;;;;;;12.36;100.00;103118.66;10326584;28;20026;-70
2022/03/26 11:59:15;;;;;;;0.10;0.10;;;;;;;12.30;100.00;103119.13;10326608;28;20030;-70
2022/03/26 12:04:18;;;;;;;0.10;0.10;;;;;;;12.32;100.00;103123.41;10326518;28;20129;-70
2022/03/26 12:09:38;;;;;;;0.10;0.10;;;;;;;12.28;100.00;103115.75;10325778;28;20054;-70
2022/03/26 12:15:04;;;;;;;0.10;0.10;;;;;;;12.31;100.00;103108.34;10326337;28;20117;-70
2022/03/26 12:20:26;;;;;;;0.00;0.00;;;;;;;12.19;100.00;103102.09;10325941;28;20050;-70
2022/03/26 12:25:58;;;;;;;0.10;0.10;;;;;;;12.13;100.00;103107.91;10325776;28;20109;-70
2022/03/26 12:31:04;;;;;;;0.10;0.10;;;;;;;12.27;100.00;103111.34;10324960;28;20092;-69
2022/03/26 12:36:05;;;;;;;0.10;0.10;;;;;;;12.28;100.00;103113.06;10325336;28;20089;-69
2022/03/26 12:41:07;;;;;;;0.10;0.10;;;;;;;12.23;100.00;103114.25;10324529;28;20065;-70
2022/03/26 12:46:10;;;;;;;0.10;0.10;;;;;;;12.18;100.00;103105.72;10325471;28;20338;-70
2022/03/26 12:51:11;;;;;;;0.08;0.08;;;;;;;12.09;100.00;103105.56;10325134;28;20394;-70
2022/03/26 12:56:12;;;;;;;0.10;0.10;;;;;;;12.16;100.00;103101.47;10325347;28;20394;-70
2022/03/26 13:01:14;;;;;;;0.10;0.10;;;;;;;12.18;100.00;103096.84;10332767;28;20489;-70
2022/03/26 13:06:16;;;;;;;0.10;0.10;;;;;;;11.96;100.00;103111.81;10332934;28;20030;-69
2022/03/26 13:11:19;;;;;;;0.10;0.10;;;;;;;11.81;100.00;103102.22;10332059;28;20031;-69
2022/03/26 13:16:24;;;;;;;0.10;0.10;;;;;;;11.74;100.00;103100.94;10332283;28;20022;-69
2022/03/26 13:21:24;;;;;;;0.10;0.10;;;;;;;11.51;100.00;103099.94;10332074;28;20027;-69
2022/03/26 13:26:44;;;;;;;0.10;0.10;;;;;;;11.35;100.00;103097.50;10332014;28;20026;-70
2022/03/26 13:31:48;;;;;;;0.00;0.00;;;;;;;11.18;100.00;103108.53;10330959;28;20097;-70
2022/03/26 13:36:49;;;;;;;0.10;0.10;;;;;;;11.08;100.00;103103.84;10330351;28;20580;-69
2022/03/26 13:41:50;;;;;;;0.10;0.10;;;;;;;10.92;100.00;103121.00;10330101;28;20173;-70
2022/03/26 13:46:51;;;;;;;0.10;0.10;;;;;;;10.73;100.00;103140.88;10331546;28;20026;-70
2022/03/26 13:51:52;;;;;;;0.10;0.10;;;;;;;10.60;100.00;103129.38;10331194;28;20030;-72
2022/03/26 13:56:56;;;;;;;0.10;0.10;;;;;;;10.51;100.00;103132.66;10331216;28;20022;-69
2022/03/26 14:01:58;;;;;;;0.00;0.00;;;;;;;10.49;100.00;103131.91;10330572;28;20076;-70
2022/03/26 14:06:58;;;;;;;0.10;0.10;;;;;;;10.52;100.00;103140.53;10329307;28;20061;-70
2022/03/26 14:12:00;;;;;;;0.10;0.10;;;;;;;10.52;100.00;103121.88;10328897;28;20050;-70
2022/03/26 14:17:00;;;;;;;0.00;0.00;;;;;;;10.51;100.00;103127.31;10329868;28;20288;-70
2022/03/26 14:22:01;;;;;;;0.10;0.10;;;;;;;10.47;100.00;103123.13;10329423;28;20031;-70
2022/03/26 14:27:01;;;;;;;0.00;0.00;;;;;;;10.47;100.00;103125.81;10329857;28;20026;-69
2022/03/26 14:32:03;;;;;;;0.10;0.10;;;;;;;10.46;100.00;103122.28;10329243;28;20042;-70
2022/03/26 14:37:03;;;;;;;0.10;0.10;;;;;;;10.50;100.00;103118.47;10328994;28;20500;-70
2022/03/26 14:42:04;;;;;;;0.10;0.10;;;;;;;10.55;100.00;103118.16;10328845;28;20031;-69
2022/03/26 14:47:04;;;;;;;0.00;0.00;;;;;;;10.53;100.00;103114.72;10328262;28;20049;-69
2022/03/26 14:52:05;;;;;;;0.10;0.10;;;;;;;10.46;100.00;103116.97;10328287;28;20024;-69
2022/03/26 14:57:05;;;;;;;0.10;0.10;;;;;;;10.43;100.00;103119.84;10329023;28;20102;-69
2022/03/26 15:02:06;;;;;;;0.00;0.00;;;;;;;10.41;100.00;103113.75;10327987;28;20109;-70
2022/03/26 15:07:07;;;;;;;0.05;0.05;;;;;;;10.39;100.00;103116.53;10328792;28;20026;-71
2022/03/26 15:12:09;;;;;;;0.00;0.00;;;;;;;10.38;100.00;103104.16;10328066;28;20378;-70
2022/03/26 15:17:09;;;;;;;0.10;0.10;;;;;;;10.27;100.00;103114.69;10327966;28;20018;-71
2022/03/26 15:22:10;;;;;;;0.10;0.10;;;;;;;10.24;100.00;103106.88;10326295;28;20335;-70
2022/03/26 15:27:10;;;;;;;0.10;0.10;;;;;;;10.17;100.00;103106.38;10328174;28;20345;-70
2022/03/26 15:32:11;;;;;;;0.00;0.00;;;;;;;10.03;100.00;103100.25;10328115;28;20474;-70
2022/03/26 15:37:11;;;;;;;0.10;0.10;;;;;;;10.04;100.00;103099.31;10327881;28;20022;-70
2022/03/26 15:42:11;;;;;;;0.10;0.10;;;;;;;9.93;100.00;103100.00;10327499;28;20293;-70
2022/03/26 15:47:12;;;;;;;0.00;0.00;;;;;;;9.71;100.00;103093.38;10327264;28;20033;-70
2022/03/26 15:52:13;;;;;;;0.10;0.10;;;;;;;9.46;100.00;103087.94;10327386;28;20026;-70
2022/03/26 15:57:13;;;;;;;0.05;0.05;;;;;;;9.18;100.00;103088.78;10327192;28;20032;-70
2022/03/26 16:02:13;;;;;;;0.00;0.00;;;;;;;9.06;100.00;103096.56;10326649;28;20031;-70
2022/03/26 16:07:14;;;;;;;0.00;0.00;;;;;;;9.04;100.00;103092.28;10327346;28;20351;-70
2022/03/26 16:12:14;;;;;;;0.10;0.10;;;;;;;8.95;100.00;103114.13;10327295;28;20018;-70
2022/03/26 16:17:14;;;;;;;0.00;0.00;;;;;;;8.80;100.00;103111.44;10326674;28;20113;-70
2022/03/26 16:22:17;;;;;;;0.10;0.10;;;;;;;8.63;100.00;103108.06;10326883;28;20026;-71
2022/03/26 16:27:17;;;;;;;0.00;0.00;;;;;;;8.48;100.00;103115.16;10327161;28;20026;-70
2022/03/26 16:32:17;;;;;;;0.00;0.00;;;;;;;8.47;100.00;103110.78;10326874;28;20029;-70
2022/03/26 16:37:18;;;;;;;0.03;0.03;;;;;;;8.42;100.00;103111.06;10334363;28;20327;-70
2022/03/26 16:42:18;;;;;;;0.00;0.00;;;;;;;8.37;100.00;103113.06;10333755;28;20096;-70
2022/03/26 16:47:18;;;;;;;0.00;0.00;;;;;;;8.23;100.00;103110.34;10334391;28;20023;-70
2022/03/26 16:52:19;;;;;;;0.10;0.10;;;;;;;8.11;100.00;103112.75;10333932;28;20080;-70
2022/03/26 16:57:19;;;;;;;0.00;0.00;;;;;;;7.99;100.00;103121.44;10334765;28;20132;-70
2022/03/26 17:02:19;;;;;;;0.00;0.00;;;;;;;7.83;100.00;103124.09;10333705;28;20042;-71
2022/03/26 17:07:20;;;;;;;0.00;0.00;;;;;;;7.72;100.00;103126.47;10331968;28;20026;-70
2022/03/26 17:12:20;;;;;;;0.00;0.00;;;;;;;7.56;100.00;103131.75;10332520;28;20269;-71
2022/03/26 17:17:20;;;;;;;0.00;0.00;;;;;;;7.41;100.00;103137.88;10333567;28;20022;-70
2022/03/26 17:22:20;;;;;;;0.10;0.10;;;;;;;7.29;100.00;103146.50;10331338;28;20517;-71
2022/03/26 17:27:21;;;;;;;0.00;0.00;;;;;;;7.16;100.00;103136.53;10332728;28;20033;-71
2022/03/26 17:32:21;;;;;;;0.00;0.00;;;;;;;7.03;100.00;103138.09;10332286;28;20026;-70
2022/03/26 17:37:22;;;;;;;0.00;0.00;;;;;;;6.91;100.00;103134.31;10331194;28;20034;-70
2022/03/26 17:42:23;;;;;;;0.00;0.00;;;;;;;6.77;100.00;103147.38;10330208;28;20041;-70
2022/03/26 17:47:23;;;;;;;0.00;0.00;;;;;;;6.63;100.00;103158.66;10331336;28;20030;-71
2022/03/26 17:52:23;;;;;;;0.00;0.00;;;;;;;6.51;100.00;103151.34;10331324;28;20084;-71
2022/03/26 17:57:24;;;;;;;0.00;0.00;;;;;;;6.39;100.00;103157.25;10331800;28;20037;-71
2022/03/26 18:02:25;;;;;;;0.00;0.00;;;;;;;6.29;100.00;103160.34;10330929;28;20331;-71
2022/03/26 18:07:25;;;;;;;0.00;0.00;;;;;;;6.17;100.00;103163.59;10330067;28;20200;-71
2022/03/26 18:12:26;;;;;;;0.00;0.00;;;;;;;6.09;100.00;103171.03;10330899;28;20104;-71
2022/03/26 18:17:27;;;;;;;0.00;0.00;;;;;;;6.00;100.00;103174.09;10330372;28;20096;-71
2022/03/26 18:22:27;;;;;;;0.00;0.00;;;;;;;5.96;100.00;103181.31;10331294;28;20293;-71
2022/03/26 18:27:28;;;;;;;0.00;0.00;;;;;;;5.88;100.00;103180.78;10330390;28;20485;-70
2022/03/26 18:32:28;;;;;;;0.00;0.00;;;;;;;5.80;100.00;103178.50;10330442;28;20531;-70
2022/03/26 18:37:29;;;;;;;0.00;0.00;;;;;;;5.72;100.00;103177.97;10330878;28;20037;-70
2022/03/26 18:42:29;;;;;;;0.00;0.00;;;;;;;5.64;100.00;103185.41;10328614;28;20701;-70
2022/03/26 18:47:29;;;;;;;0.00;0.00;;;;;;;5.58;100.00;103183.88;10329433;28;20034;-70
2022/03/26 18:52:30;;;;;;;0.00;0.00;;;;;;;5.55;100.00;103184.03;10329351;28;20317;-70
2022/03/26 18:57:30;;;;;;;0.00;0.00;;;;;;;5.51;100.00;103189.53;10329274;28;20038;-70
2022/03/26 19:02:30;;;;;;;0.00;0.00;;;;;;;5.47;100.00;103190.59;10328859;28;20038;-70
2022/03/26 19:07:30;;;;;;;0.00;0.00;;;;;;;5.43;100.00;103188.06;10329579;28;20164;-70
2022/03/26 19:12:31;;;;;;;0.00;0.00;;;;;;;5.40;100.00;103193.50;10328287;28;20261;-70
2022/03/26 19:17:34;;;;;;;0.00;0.00;;;;;;;5.35;100.00;103200.78;10328261;28;20234;-70
2022/03/26 19:22:34;;;;;;;0.00;0.00;;;;;;;5.30;100.00;103192.19;10328230;28;20173;-70
2022/03/26 19:27:35;;;;;;;0.00;0.00;;;;;;;5.28;100.00;103196.69;10327903;28;20223;-70
2022/03/26 19:32:36;;;;;;;0.00;0.00;;;;;;;5.25;100.00;103193.31;10328004;28;20026;-70
2022/03/26 19:37:36;;;;;;;0.00;0.00;;;;;;;5.20;100.00;103207.56;10328110;28;20018;-70
2022/03/26 19:42:36;;;;;;;0.00;0.00;;;;;;;5.14;100.00;103213.13;10327394;28;20031;-71
2022/03/26 19:47:37;;;;;;;0.00;0.00;;;;;;;5.10;100.00;103221.25;10326929;28;20474;-70
2022/03/26 19:52:37;;;;;;;0.00;0.00;;;;;;;5.02;100.00;103229.50;10326951;28;20026;-70
2022/03/26 19:57:38;;;;;;;0.00;0.00;;;;;;;4.93;100.00;103229.88;10327400;28;20030;-70
2022/03/26 20:02:38;;;;;;;0.00;0.00;;;;;;;4.83;100.00;103247.91;10325203;28;20031;-70
2022/03/26 20:07:39;;;;;;;0.00;0.00;;;;;;;4.76;100.00;103254.34;10327066;28;20105;-70
2022/03/26 20:12:39;;;;;;;0.00;0.00;;;;;;;4.70;100.00;103251.94;10327172;28;20506;-71
2022/03/26 20:22:58;;;;;;;0.00;0.00;;;;;;;4.63;100.00;103258.41;10326906;28;20030;-71
2022/03/26 20:27:58;;;;;;;0.00;0.00;;;;;;;4.54;100.00;103255.22;10346520;23;20509;-70
2022/03/26 20:32:59;;;;;;;0.00;0.00;;;;;;;4.49;100.00;103254.53;10328606;28;20049;-70
2022/03/26 20:38:00;;;;;;;0.00;0.00;;;;;;;4.44;100.00;103252.97;10328694;28;20530;-70
2022/03/26 20:43:01;;;;;;;0.00;0.00;;;;;;;4.39;100.00;103254.94;10326969;28;20102;-70
2022/03/26 20:48:01;;;;;;;0.00;0.00;;;;;;;4.32;100.00;103254.31;10346030;28;20026;-71
2022/03/26 20:53:01;;;;;;;0.00;0.00;;;;;;;4.29;100.00;103259.72;10328329;28;20030;-70
2022/03/26 20:58:02;;;;;;;0.00;0.00;;;;;;;4.26;100.00;103260.69;10328432;28;20045;-70
2022/03/26 21:03:02;;;;;;;0.00;0.00;;;;;;;4.24;100.00;103272.22;10310083;28;20093;-70
2022/03/26 21:08:03;;;;;;;0.00;0.00;;;;;;;4.18;100.00;103278.59;10311597;28;20037;-70
2022/03/26 21:13:05;;;;;;;0.00;0.00;;;;;;;4.16;100.00;103277.81;10305476;28;20019;-70
2022/03/26 21:18:06;;;;;;;0.00;0.00;;;;;;;4.17;100.00;103289.22;10317918;28;20370;-70
2022/03/26 21:23:06;;;;;;;0.00;0.00;;;;;;;4.16;100.00;103282.19;10306397;28;20018;-70
2022/03/26 21:28:06;;;;;;;0.00;0.00;;;;;;;4.14;100.00;103278.78;10312219;28;20060;-70
2022/03/26 21:33:07;;;;;;;0.00;0.00;;;;;;;4.09;100.00;103271.88;10328280;28;20437;-70
2022/03/26 21:38:08;;;;;;;0.00;0.00;;;;;;;4.06;100.00;103281.69;10306950;28;20089;-70
2022/03/26 21:43:09;;;;;;;0.00;0.00;;;;;;;4.02;100.00;103274.81;10304860;28;20077;-70
2022/03/26 21:48:10;;;;;;;0.00;0.00;;;;;;;3.99;100.00;103304.78;10325930;28;20501;-70
2022/03/26 21:53:10;;;;;;;0.00;0.00;;;;;;;3.95;100.00;103291.75;10315919;28;20018;-70
2022/03/26 21:58:12;;;;;;;0.00;0.00;;;;;;;3.86;100.00;103299.09;10313064;28;20269;-70
2022/03/26 22:03:13;;;;;;;0.00;0.00;;;;;;;3.80;100.00;103299.31;10309580;28;20394;-70
2022/03/26 22:08:13;;;;;;;0.00;0.00;;;;;;;3.75;100.00;103300.38;10310249;28;20088;-70
2022/03/26 22:13:14;;;;;;;0.00;0.00;;;;;;;3.74;100.00;103302.16;10323360;28;20088;-70
2022/03/26 22:18:15;;;;;;;0.00;0.00;;;;;;;3.71;100.00;103314.59;10356574;28;20156;-70
2022/03/26 22:23:18;;;;;;;0.00;0.00;;;;;;;3.65;100.00;103309.53;10309333;28;20031;-70
2022/03/26 22:28:18;;;;;;;0.00;0.00;;;;;;;3.55;100.00;103308.97;10296686;28;20026;-70
2022/03/26 22:33:19;;;;;;;0.00;0.00;;;;;;;3.47;100.00;103309.25;10295374;28;20101;-70
2022/03/26 22:38:19;;;;;;;0.00;0.00;;;;;;;3.41;100.00;103312.09;10312123;28;20034;-70
2022/03/26 22:43:20;;;;;;;0.00;0.00;;;;;;;3.29;100.00;103305.47;10313449;28;20085;-70
2022/03/26 22:48:20;;;;;;;0.00;0.00;;;;;;;3.25;100.00;103305.63;10312569;28;20429;-70
2022/03/26 22:53:21;;;;;;;0.00;0.00;;;;;;;3.22;100.00;103301.31;10312276;28;20022;-70
2022/03/26 22:58:21;;;;;;;0.00;0.00;;;;;;;3.24;100.00;103314.44;10310649;28;20344;-70
2022/03/26 23:03:21;;;;;;;0.00;0.00;;;;;;;3.20;100.00;103308.41;10306418;28;20034;-70
2022/03/26 23:08:22;;;;;;;0.00;0.00;;;;;;;3.08;100.00;103308.78;10310233;28;20417;-70
2022/03/26 23:13:23;;;;;;;0.00;0.00;;;;;;;2.95;100.00;103305.72;10307577;28;20034;-70
2022/03/26 23:18:23;;;;;;;0.00;0.00;;;;;;;2.83;100.00;103304.31;10318007;28;20032;-70
2022/03/26 23:23:23;;;;;;;0.00;0.00;;;;;;;2.76;100.00;103307.19;10317776;28;20043;-70